Svitzer Stanlow — MLNF7 — position and weather

sailwx.info

Track history (hours):
 
Tides and Currents Weather Stations Pressure Air Temp Water Temp Dewpoint Dewpoint Depression Visibility Wind Speed Wind Dir Waves Ship Positions

Svitzer Stanlow

Last reported at 2015-Apr-01 12:33 UTC. Time now 2015-Apr-01 13:10 UTC.
Position N 53°24' W 003°00'.

Length 39 m.

Type: Tug. MMSI: 235010620.

Date/timePositionNaut miles runAvg speedWind from/ knotsBaromVisibWave heightAir tempDewpointWater temp
2015-Apr-01 12:33N 53°24' W 003°00'1 1.2
2015-Apr-01 11:31N 53°23' W 002°60'0 0.2
2015-Apr-01 10:32N 53°23' W 002°60'0 0.0
2015-Apr-01 09:32N 53°23' W 002°60'0 0.0
2015-Apr-01 08:32N 53°23' W 002°60'0 0.0
2015-Apr-01 07:32N 53°23' W 002°60'0 0.0
2015-Apr-01 06:32N 53°23' W 002°60'0 0.0
2015-Apr-01 05:32N 53°23' W 002°60'0 0.0
2015-Apr-01 04:29N 53°23' W 002°60'0 0.0
2015-Apr-01 03:31N 53°23' W 002°60'0 0.0
2015-Apr-01 02:25N 53°23' W 002°60'0 0.0
2015-Apr-01 01:31N 53°23' W 002°60'0 0.0
2015-Apr-01 00:31N 53°23' W 002°60'0 0.0
2015-Mar-31 23:31N 53°23' W 002°60'0 0.0
2015-Mar-31 22:31N 53°23' W 002°60'0 0.1
2015-Mar-31 21:32N 53°23' W 003°00'3 3.0
2015-Mar-31 20:33N 53°26' W 003°01'9 9.0
2015-Mar-31 19:33N 53°31' W 003°13'2 1.8
2015-Mar-31 18:33N 53°32' W 003°10'9 9.3
2015-Mar-31 17:33N 53°24' W 003°01'2 1.7
2015-Mar-31 16:33N 53°23' W 002°60'0 0.1
2015-Mar-31 15:32N 53°23' W 002°60'0 0.0
2015-Mar-31 14:32N 53°23' W 002°60'0 0.0
2015-Mar-31 13:32N 53°23' W 002°60'0 0.0
2015-Mar-31 12:32N 53°23' W 002°60'0 0.0
2015-Mar-31 11:32N 53°23' W 002°60'0 0.0
2015-Mar-31 10:32N 53°23' W 002°60'0 0.0
2015-Mar-31 09:26N 53°23' W 002°60'0 0.0
2015-Mar-31 08:32N 53°23' W 002°60'0 0.0
2015-Mar-31 07:32N 53°23' W 002°60'0 0.0
2015-Mar-31 06:32N 53°23' W 002°60'0 0.0
2015-Mar-31 05:32N 53°23' W 002°60'0 0.0
2015-Mar-31 04:32N 53°23' W 002°60'0 0.0
2015-Mar-31 03:32N 53°23' W 002°60'0 0.0
2015-Mar-31 02:29N 53°23' W 002°60'0 0.0
2015-Mar-31 01:32N 53°23' W 002°60'0 0.0
2015-Mar-31 00:32N 53°23' W 002°60'0 0.0
2015-Mar-30 23:32N 53°23' W 002°60'0 0.0
2015-Mar-30 22:31N 53°23' W 002°60'0 0.0
2015-Mar-30 21:31N 53°23' W 002°60'0 0.0
2015-Mar-30 20:31N 53°23' W 002°60'0 0.0
2015-Mar-30 19:31N 53°23' W 002°60'0 0.0
2015-Mar-30 18:25N 53°23' W 002°60'0 0.0
2015-Mar-30 17:31N 53°23' W 002°60'0 0.0
2015-Mar-30 16:28N 53°23' W 002°60'0 0.0
2015-Mar-30 15:31N 53°23' W 002°60'0 0.0
2015-Mar-30 14:31N 53°23' W 002°60'0 0.0
2015-Mar-30 13:31N 53°23' W 002°60'0 0.0
2015-Mar-30 12:31N 53°23' W 002°60'0 0.0
2015-Mar-30 11:31N 53°23' W 002°60'0 0.0
2015-Mar-30 10:31N 53°23' W 002°60'0 0.0
2015-Mar-30 09:28N 53°23' W 002°60'0 0.3
2015-Mar-30 08:28N 53°23' W 003°00'1 1.5
2015-Mar-30 07:33N 53°24' W 003°01'8 8.1
2015-Mar-30 06:33N 53°31' W 003°07'6 6.5
2015-Mar-30 05:33N 53°32' W 003°18'6 6.0
2015-Mar-30 04:33N 53°32' W 003°08'7 6.8
2015-Mar-30 03:33N 53°26' W 003°01'1 0.9
2015-Mar-30 02:27N 53°25' W 003°00'0 0.0
2015-Mar-30 01:33N 53°25' W 003°00'0 0.0
2015-Mar-30 00:33N 53°25' W 003°00'0 0.0
2015-Mar-29 23:33N 53°25' W 003°00'0 0.0
2015-Mar-29 22:33N 53°25' W 003°00'0 0.0
2015-Mar-29 21:33N 53°25' W 003°00'0 0.0
2015-Mar-29 20:33N 53°25' W 003°00'0 0.0
2015-Mar-29 19:33N 53°25' W 003°00'0 0.0
2015-Mar-29 18:33N 53°25' W 003°00'0 0.0
2015-Mar-29 17:27N 53°25' W 003°00'0 0.0
2015-Mar-29 16:33N 53°25' W 003°00'0 0.0
2015-Mar-29 15:33N 53°25' W 003°00'0 0.0
2015-Mar-29 14:33N 53°25' W 003°00'0 0.0
2015-Mar-29 13:33N 53°25' W 003°00'0 0.0
2015-Mar-29 12:33N 53°25' W 003°00'0 0.0
2015-Mar-29 11:24N 53°25' W 003°00'0 0.0
2015-Mar-29 10:33N 53°25' W 003°00'0 0.0
2015-Mar-29 09:33N 53°25' W 003°00'0 0.0
2015-Mar-29 08:30N 53°25' W 003°00'0 0.0
2015-Mar-29 07:33N 53°25' W 003°00'0 0.0
2015-Mar-29 06:33N 53°25' W 003°00'0 0.0
2015-Mar-29 05:33N 53°25' W 003°00'0 0.0
2015-Mar-29 04:33N 53°25' W 003°00'0 0.0
2015-Mar-29 03:33N 53°25' W 003°00'0 0.0
2015-Mar-29 02:33N 53°25' W 003°00'0 0.0
2015-Mar-29 01:33N 53°25' W 003°00'0 0.0
2015-Mar-29 00:33N 53°25' W 003°00'0 0.0
2015-Mar-28 23:33N 53°25' W 003°00'0 0.0
2015-Mar-28 22:30N 53°25' W 003°00'0 0.0
2015-Mar-28 21:30N 53°25' W 003°00'0 0.0
2015-Mar-28 20:24N 53°25' W 003°00'0 0.0
2015-Mar-28 19:30N 53°25' W 003°00'0 0.0
2015-Mar-28 18:30N 53°25' W 003°00'0 0.0
2015-Mar-28 17:29N 53°25' W 003°00'0 0.0
2015-Mar-28 16:23N 53°25' W 003°00'0 0.0
2015-Mar-28 15:29N 53°25' W 003°00'0 0.0
2015-Mar-28 14:29N 53°25' W 003°00'0 0.0
2015-Mar-28 13:29N 53°25' W 003°00'0 0.0
2015-Mar-28 12:23N 53°25' W 003°00'0 0.0
2015-Mar-28 11:29N 53°25' W 003°00'0 0.0
2015-Mar-28 10:29N 53°25' W 003°00'0 0.0
2015-Mar-28 09:29N 53°25' W 003°00'0 0.0
2015-Mar-28 08:29N 53°25' W 003°00'0 0.0
2015-Mar-28 07:23N 53°25' W 003°00'1 0.8
2015-Mar-28 06:33N 53°26' W 003°00'2 1.6
2015-Mar-28 05:33N 53°28' W 003°01'0 0.1
2015-Mar-28 04:32N 53°28' W 003°02'1 0.6
2015-Mar-28 03:28N 53°27' W 003°01'0 0.4
2015-Mar-28 02:33N 53°27' W 003°02'2 1.7
2015-Mar-28 01:33N 53°25' W 003°01'3 2.2
2015-Mar-28 00:22N 53°23' W 002°60'0 0.0
2015-Mar-27 17:33N 53°23' W 002°60'0 0.0
2015-Mar-27 16:27N 53°23' W 002°60'0 0.0
2015-Mar-27 15:33N 53°23' W 002°60'0 0.0
2015-Mar-27 12:27N 53°23' W 002°60'0 0.0
2015-Mar-27 11:21N 53°23' W 002°60'0 0.0
2015-Mar-27 10:27N 53°23' W 002°60'0 0.0
2015-Mar-27 05:33N 53°23' W 002°60'0 0.0
2015-Mar-27 04:33N 53°23' W 002°60'0 0.0
2015-Mar-27 03:21N 53°23' W 002°60'0 0.0
2015-Mar-27 02:27N 53°23' W 002°60'0 0.0
2015-Mar-26 23:13N 53°23' W 002°60'0 0.0
2015-Mar-26 22:31N 53°23' W 002°60'0 0.0
2015-Mar-26 21:31N 53°23' W 002°60'0 0.0
2015-Mar-26 20:13N 53°23' W 002°60'0 0.0
2015-Mar-26 18:25N 53°23' W 002°60'0 0.0
2015-Mar-26 17:31N 53°23' W 002°60'0 0.0
2015-Mar-26 16:31N 53°23' W 002°60'0 0.3
2015-Mar-26 15:28N 53°23' W 003°00'5 5.1
2015-Mar-26 14:33N 53°27' W 003°03'9 8.7
2015-Mar-26 13:32N 53°31' W 003°16'6 6.0
2015-Mar-26 12:33N 53°31' W 003°06'8 8.2
2015-Mar-26 11:33N 53°24' W 003°00'1 0.9
2015-Mar-26 10:31N 53°23' W 002°60'0 0.0
2015-Mar-26 09:31N 53°23' W 002°60'0 0.2
2015-Mar-26 08:27N 53°23' W 002°60'0 0.0
2015-Mar-26 07:33N 53°23' W 002°60'0 0.0
2015-Mar-26 06:32N 53°23' W 002°60'0 0.0
2015-Mar-26 05:32N 53°23' W 002°60'0 0.0
2015-Mar-26 04:20N 53°23' W 002°60'0 0.0
2015-Mar-26 03:20N 53°23' W 002°60'0 0.0
2015-Mar-26 02:32N 53°23' W 002°60'0 0.0
2015-Mar-26 01:26N 53°23' W 002°60'0 0.0
2015-Mar-26 00:32N 53°23' W 002°60'0 0.0
2015-Mar-25 23:26N 53°23' W 002°60'0 0.0
2015-Mar-25 21:32N 53°23' W 002°60'0 0.0
2015-Mar-25 20:32N 53°23' W 002°60'0 0.0
2015-Mar-25 19:32N 53°23' W 002°60'0 0.0
2015-Mar-25 18:14N 53°23' W 002°60'0 0.0
2015-Mar-25 17:14N 53°23' W 002°60'0 0.0
2015-Mar-25 16:32N 53°23' W 002°60'0 0.0
2015-Mar-25 15:32N 53°23' W 002°60'0 0.0
2015-Mar-25 14:26N 53°23' W 002°60'0 0.0
2015-Mar-25 13:20N 53°23' W 002°60'0 0.0
2015-Mar-25 12:32N 53°23' W 002°60'0 0.0
2015-Mar-25 11:26N 53°23' W 002°60'0 0.0
2015-Mar-25 10:32N 53°23' W 002°60'0 0.0
2015-Mar-25 09:26N 53°23' W 002°60'0 0.0
2015-Mar-25 08:32N 53°23' W 002°60'0 0.0
2015-Mar-25 07:26N 53°23' W 002°60'0 0.0
2015-Mar-25 06:32N 53°23' W 002°60'0 0.0
2015-Mar-25 03:26N 53°23' W 002°60'0 0.3
2015-Mar-25 02:28N 53°23' W 003°00'2 2.5
2015-Mar-25 01:33N 53°25' W 003°01'8 8.5
2015-Mar-25 00:33N 53°32' W 003°10'1 0.7
2015-Mar-24 23:33N 53°32' W 003°08'9 8.7
2015-Mar-24 22:33N 53°24' W 003°00'2 1.5
2015-Mar-24 21:29N 53°23' W 003°00'0 0.0
2015-Mar-24 20:29N 53°23' W 003°00'0 0.0
2015-Mar-24 19:29N 53°23' W 003°00'0 0.0
2015-Mar-24 18:29N 53°23' W 003°00'0 0.0
2015-Mar-24 17:29N 53°23' W 003°00'0 0.0
2015-Mar-24 16:29N 53°23' W 003°00'0 0.0
2015-Mar-24 15:23N 53°23' W 003°00'0 0.0
2015-Mar-24 14:23N 53°23' W 003°00'0 0.0
2015-Mar-24 13:23N 53°23' W 003°00'0 0.0
2015-Mar-24 12:29N 53°23' W 003°00'0 0.0
2015-Mar-24 11:29N 53°23' W 003°00'0 0.0
2015-Mar-24 10:29N 53°23' W 003°00'0 0.1
2015-Mar-24 09:33N 53°23' W 002°60'0 0.0
2015-Mar-24 08:33N 53°23' W 002°60'0 0.0
2015-Mar-24 07:33N 53°23' W 002°60'0 0.0
2015-Mar-24 06:21N 53°23' W 002°60'0 0.0
2015-Mar-24 05:15N 53°23' W 002°60'0 0.0
2015-Mar-24 04:33N 53°23' W 002°60'0 0.0
2015-Mar-24 03:33N 53°23' W 002°60'0 0.1
2015-Mar-24 02:20N 53°23' W 002°60'1 0.5
2015-Mar-24 01:21N 53°23' W 003°00'6 7.8
2015-Mar-24 00:33N 53°29' W 003°05'7 6.6
2015-Mar-23 23:33N 53°31' W 003°15'8 7.9
2015-Mar-23 22:33N 53°28' W 003°03'5 5.4
2015-Mar-23 21:33N 53°23' W 002°60'0 0.0
2015-Mar-23 20:27N 53°23' W 002°60'0 0.0
2015-Mar-23 19:33N 53°23' W 002°60'0 0.0
2015-Mar-23 18:26N 53°23' W 002°60'0 0.0
2015-Mar-23 17:08N 53°23' W 002°60'0 0.0
2015-Mar-23 15:32N 53°23' W 002°60'0 0.0
2015-Mar-23 14:32N 53°23' W 002°60'0 0.2
2015-Mar-23 13:29N 53°23' W 003°00'3 3.0
2015-Mar-23 12:33N 53°26' W 003°01'8 8.0
2015-Mar-23 11:33N 53°32' W 003°10'4 3.6
2015-Mar-23 10:33N 53°31' W 003°16'8 7.9
2015-Mar-23 09:33N 53°28' W 003°04'6 5.7
2015-Mar-23 08:31N 53°23' W 002°60'0 0.1
2015-Mar-23 07:30N 53°23' W 002°60'0 0.0
2015-Mar-23 06:30N 53°23' W 002°60'0 0.0
2015-Mar-23 05:30N 53°23' W 002°60'0 0.0
2015-Mar-23 04:30N 53°23' W 002°60'0 0.0
2015-Mar-23 03:18N 53°23' W 002°60'0 0.0
2015-Mar-23 02:30N 53°23' W 002°60'0 0.0
2015-Mar-23 01:24N 53°23' W 002°60'0 0.0
2015-Mar-23 00:24N 53°23' W 002°60'0 0.0
2015-Mar-22 23:17N 53°23' W 002°60'0 0.0
2015-Mar-22 22:23N 53°23' W 002°60'0 0.0
2015-Mar-22 21:29N 53°23' W 002°60'0 0.0
2015-Mar-22 20:29N 53°23' W 002°60'0 0.0
2015-Mar-22 19:29N 53°23' W 002°60'0 0.0
2015-Mar-22 18:29N 53°23' W 002°60'0 0.0
2015-Mar-22 17:29N 53°23' W 002°60'0 0.0
2015-Mar-22 16:23N 53°23' W 002°60'0 0.0
2015-Mar-22 15:23N 53°23' W 002°60'0 0.0
2015-Mar-22 14:29N 53°23' W 002°60'0 0.0
2015-Mar-22 13:29N 53°23' W 002°60'  
Track history (hours):
 
Tides and Currents Weather Stations Pressure Air Temp Water Temp Dewpoint Dewpoint Depression Visibility Wind Speed Wind Dir Waves Ship Positions

Svitzer Stanlow

Last reported at 2015-Apr-01 12:33 UTC. Time now 2015-Apr-01 13:10 UTC.
Position N 53°24' W 003°00'.

Length 39 m.

Type: Tug. MMSI: 235010620.

Date/timePositionNaut miles runAvg speedWind from/ knotsBaromVisibWave heightAir tempDewpointWater temp
2015-Apr-01 12:33N 53°24' W 003°00'1 1.2
2015-Apr-01 11:31N 53°23' W 002°60'0 0.2
2015-Apr-01 10:32N 53°23' W 002°60'0 0.0
2015-Apr-01 09:32N 53°23' W 002°60'0 0.0
2015-Apr-01 08:32N 53°23' W 002°60'0 0.0
2015-Apr-01 07:32N 53°23' W 002°60'0 0.0
2015-Apr-01 06:32N 53°23' W 002°60'0 0.0
2015-Apr-01 05:32N 53°23' W 002°60'0 0.0
2015-Apr-01 04:29N 53°23' W 002°60'0 0.0
2015-Apr-01 03:31N 53°23' W 002°60'0 0.0
2015-Apr-01 02:25N 53°23' W 002°60'0 0.0
2015-Apr-01 01:31N 53°23' W 002°60'0 0.0
2015-Apr-01 00:31N 53°23' W 002°60'0 0.0
2015-Mar-31 23:31N 53°23' W 002°60'0 0.0
2015-Mar-31 22:31N 53°23' W 002°60'0 0.1
2015-Mar-31 21:32N 53°23' W 003°00'3 3.0
2015-Mar-31 20:33N 53°26' W 003°01'9 9.0
2015-Mar-31 19:33N 53°31' W 003°13'2 1.8
2015-Mar-31 18:33N 53°32' W 003°10'9 9.3
2015-Mar-31 17:33N 53°24' W 003°01'2 1.7
2015-Mar-31 16:33N 53°23' W 002°60'0 0.1
2015-Mar-31 15:32N 53°23' W 002°60'0 0.0
2015-Mar-31 14:32N 53°23' W 002°60'0 0.0
2015-Mar-31 13:32N 53°23' W 002°60'0 0.0
2015-Mar-31 12:32N 53°23' W 002°60'0 0.0
2015-Mar-31 11:32N 53°23' W 002°60'0 0.0
2015-Mar-31 10:32N 53°23' W 002°60'0 0.0
2015-Mar-31 09:26N 53°23' W 002°60'0 0.0
2015-Mar-31 08:32N 53°23' W 002°60'0 0.0
2015-Mar-31 07:32N 53°23' W 002°60'0 0.0
2015-Mar-31 06:32N 53°23' W 002°60'0 0.0
2015-Mar-31 05:32N 53°23' W 002°60'0 0.0
2015-Mar-31 04:32N 53°23' W 002°60'0 0.0
2015-Mar-31 03:32N 53°23' W 002°60'0 0.0
2015-Mar-31 02:29N 53°23' W 002°60'0 0.0
2015-Mar-31 01:32N 53°23' W 002°60'0 0.0
2015-Mar-31 00:32N 53°23' W 002°60'0 0.0
2015-Mar-30 23:32N 53°23' W 002°60'0 0.0
2015-Mar-30 22:31N 53°23' W 002°60'0 0.0
2015-Mar-30 21:31N 53°23' W 002°60'0 0.0
2015-Mar-30 20:31N 53°23' W 002°60'0 0.0
2015-Mar-30 19:31N 53°23' W 002°60'0 0.0
2015-Mar-30 18:25N 53°23' W 002°60'0 0.0
2015-Mar-30 17:31N 53°23' W 002°60'0 0.0
2015-Mar-30 16:28N 53°23' W 002°60'0 0.0
2015-Mar-30 15:31N 53°23' W 002°60'0 0.0
2015-Mar-30 14:31N 53°23' W 002°60'0 0.0
2015-Mar-30 13:31N 53°23' W 002°60'0 0.0
2015-Mar-30 12:31N 53°23' W 002°60'0 0.0
2015-Mar-30 11:31N 53°23' W 002°60'0 0.0
2015-Mar-30 10:31N 53°23' W 002°60'0 0.0
2015-Mar-30 09:28N 53°23' W 002°60'0 0.3
2015-Mar-30 08:28N 53°23' W 003°00'1 1.5
2015-Mar-30 07:33N 53°24' W 003°01'8 8.1
2015-Mar-30 06:33N 53°31' W 003°07'6 6.5
2015-Mar-30 05:33N 53°32' W 003°18'6 6.0
2015-Mar-30 04:33N 53°32' W 003°08'7 6.8
2015-Mar-30 03:33N 53°26' W 003°01'1 0.9
2015-Mar-30 02:27N 53°25' W 003°00'0 0.0
2015-Mar-30 01:33N 53°25' W 003°00'0 0.0
2015-Mar-30 00:33N 53°25' W 003°00'0 0.0
2015-Mar-29 23:33N 53°25' W 003°00'0 0.0
2015-Mar-29 22:33N 53°25' W 003°00'0 0.0
2015-Mar-29 21:33N 53°25' W 003°00'0 0.0
2015-Mar-29 20:33N 53°25' W 003°00'0 0.0
2015-Mar-29 19:33N 53°25' W 003°00'0 0.0
2015-Mar-29 18:33N 53°25' W 003°00'0 0.0
2015-Mar-29 17:27N 53°25' W 003°00'0 0.0
2015-Mar-29 16:33N 53°25' W 003°00'0 0.0
2015-Mar-29 15:33N 53°25' W 003°00'0 0.0
2015-Mar-29 14:33N 53°25' W 003°00'0 0.0
2015-Mar-29 13:33N 53°25' W 003°00'0 0.0
2015-Mar-29 12:33N 53°25' W 003°00'0 0.0
2015-Mar-29 11:24N 53°25' W 003°00'0 0.0
2015-Mar-29 10:33N 53°25' W 003°00'0 0.0
2015-Mar-29 09:33N 53°25' W 003°00'0 0.0
2015-Mar-29 08:30N 53°25' W 003°00'0 0.0
2015-Mar-29 07:33N 53°25' W 003°00'0 0.0
2015-Mar-29 06:33N 53°25' W 003°00'0 0.0
2015-Mar-29 05:33N 53°25' W 003°00'0 0.0
2015-Mar-29 04:33N 53°25' W 003°00'0 0.0
2015-Mar-29 03:33N 53°25' W 003°00'0 0.0
2015-Mar-29 02:33N 53°25' W 003°00'0 0.0
2015-Mar-29 01:33N 53°25' W 003°00'0 0.0
2015-Mar-29 00:33N 53°25' W 003°00'0 0.0
2015-Mar-28 23:33N 53°25' W 003°00'0 0.0
2015-Mar-28 22:30N 53°25' W 003°00'0 0.0
2015-Mar-28 21:30N 53°25' W 003°00'0 0.0
2015-Mar-28 20:24N 53°25' W 003°00'0 0.0
2015-Mar-28 19:30N 53°25' W 003°00'0 0.0
2015-Mar-28 18:30N 53°25' W 003°00'0 0.0
2015-Mar-28 17:29N 53°25' W 003°00'0 0.0
2015-Mar-28 16:23N 53°25' W 003°00'0 0.0
2015-Mar-28 15:29N 53°25' W 003°00'0 0.0
2015-Mar-28 14:29N 53°25' W 003°00'0 0.0
2015-Mar-28 13:29N 53°25' W 003°00'0 0.0
2015-Mar-28 12:23N 53°25' W 003°00'0 0.0
2015-Mar-28 11:29N 53°25' W 003°00'0 0.0
2015-Mar-28 10:29N 53°25' W 003°00'0 0.0
2015-Mar-28 09:29N 53°25' W 003°00'0 0.0
2015-Mar-28 08:29N 53°25' W 003°00'0 0.0
2015-Mar-28 07:23N 53°25' W 003°00'1 0.8
2015-Mar-28 06:33N 53°26' W 003°00'2 1.6
2015-Mar-28 05:33N 53°28' W 003°01'0 0.1
2015-Mar-28 04:32N 53°28' W 003°02'1 0.6
2015-Mar-28 03:28N 53°27' W 003°01'0 0.4
2015-Mar-28 02:33N 53°27' W 003°02'2 1.7
2015-Mar-28 01:33N 53°25' W 003°01'3 2.2
2015-Mar-28 00:22N 53°23' W 002°60'0 0.0
2015-Mar-27 17:33N 53°23' W 002°60'0 0.0
2015-Mar-27 16:27N 53°23' W 002°60'0 0.0
2015-Mar-27 15:33N 53°23' W 002°60'0 0.0
2015-Mar-27 12:27N 53°23' W 002°60'0 0.0
2015-Mar-27 11:21N 53°23' W 002°60'0 0.0
2015-Mar-27 10:27N 53°23' W 002°60'0 0.0
2015-Mar-27 05:33N 53°23' W 002°60'0 0.0
2015-Mar-27 04:33N 53°23' W 002°60'0 0.0
2015-Mar-27 03:21N 53°23' W 002°60'0 0.0
2015-Mar-27 02:27N 53°23' W 002°60'0 0.0
2015-Mar-26 23:13N 53°23' W 002°60'0 0.0
2015-Mar-26 22:31N 53°23' W 002°60'0 0.0
2015-Mar-26 21:31N 53°23' W 002°60'0 0.0
2015-Mar-26 20:13N 53°23' W 002°60'0 0.0
2015-Mar-26 18:25N 53°23' W 002°60'0 0.0
2015-Mar-26 17:31N 53°23' W 002°60'0 0.0
2015-Mar-26 16:31N 53°23' W 002°60'0 0.3
2015-Mar-26 15:28N 53°23' W 003°00'5 5.1
2015-Mar-26 14:33N 53°27' W 003°03'9 8.7
2015-Mar-26 13:32N 53°31' W 003°16'6 6.0
2015-Mar-26 12:33N 53°31' W 003°06'8 8.2
2015-Mar-26 11:33N 53°24' W 003°00'1 0.9
2015-Mar-26 10:31N 53°23' W 002°60'0 0.0
2015-Mar-26 09:31N 53°23' W 002°60'0 0.2
2015-Mar-26 08:27N 53°23' W 002°60'0 0.0
2015-Mar-26 07:33N 53°23' W 002°60'0 0.0
2015-Mar-26 06:32N 53°23' W 002°60'0 0.0
2015-Mar-26 05:32N 53°23' W 002°60'0 0.0
2015-Mar-26 04:20N 53°23' W 002°60'0 0.0
2015-Mar-26 03:20N 53°23' W 002°60'0 0.0
2015-Mar-26 02:32N 53°23' W 002°60'0 0.0
2015-Mar-26 01:26N 53°23' W 002°60'0 0.0
2015-Mar-26 00:32N 53°23' W 002°60'0 0.0
2015-Mar-25 23:26N 53°23' W 002°60'0 0.0
2015-Mar-25 21:32N 53°23' W 002°60'0 0.0
2015-Mar-25 20:32N 53°23' W 002°60'0 0.0
2015-Mar-25 19:32N 53°23' W 002°60'0 0.0
2015-Mar-25 18:14N 53°23' W 002°60'0 0.0
2015-Mar-25 17:14N 53°23' W 002°60'0 0.0
2015-Mar-25 16:32N 53°23' W 002°60'0 0.0
2015-Mar-25 15:32N 53°23' W 002°60'0 0.0
2015-Mar-25 14:26N 53°23' W 002°60'0 0.0
2015-Mar-25 13:20N 53°23' W 002°60'0 0.0
2015-Mar-25 12:32N 53°23' W 002°60'0 0.0
2015-Mar-25 11:26N 53°23' W 002°60'0 0.0
2015-Mar-25 10:32N 53°23' W 002°60'0 0.0
2015-Mar-25 09:26N 53°23' W 002°60'0 0.0
2015-Mar-25 08:32N 53°23' W 002°60'0 0.0
2015-Mar-25 07:26N 53°23' W 002°60'0 0.0
2015-Mar-25 06:32N 53°23' W 002°60'0 0.0
2015-Mar-25 03:26N 53°23' W 002°60'0 0.3
2015-Mar-25 02:28N 53°23' W 003°00'2 2.5
2015-Mar-25 01:33N 53°25' W 003°01'8 8.5
2015-Mar-25 00:33N 53°32' W 003°10'1 0.7
2015-Mar-24 23:33N 53°32' W 003°08'9 8.7
2015-Mar-24 22:33N 53°24' W 003°00'2 1.5
2015-Mar-24 21:29N 53°23' W 003°00'0 0.0
2015-Mar-24 20:29N 53°23' W 003°00'0 0.0
2015-Mar-24 19:29N 53°23' W 003°00'0 0.0
2015-Mar-24 18:29N 53°23' W 003°00'0 0.0
2015-Mar-24 17:29N 53°23' W 003°00'0 0.0
2015-Mar-24 16:29N 53°23' W 003°00'0 0.0
2015-Mar-24 15:23N 53°23' W 003°00'0 0.0
2015-Mar-24 14:23N 53°23' W 003°00'0 0.0
2015-Mar-24 13:23N 53°23' W 003°00'0 0.0
2015-Mar-24 12:29N 53°23' W 003°00'0 0.0
2015-Mar-24 11:29N 53°23' W 003°00'0 0.0
2015-Mar-24 10:29N 53°23' W 003°00'0 0.1
2015-Mar-24 09:33N 53°23' W 002°60'0 0.0
2015-Mar-24 08:33N 53°23' W 002°60'0 0.0
2015-Mar-24 07:33N 53°23' W 002°60'0 0.0
2015-Mar-24 06:21N 53°23' W 002°60'0 0.0
2015-Mar-24 05:15N 53°23' W 002°60'0 0.0
2015-Mar-24 04:33N 53°23' W 002°60'0 0.0
2015-Mar-24 03:33N 53°23' W 002°60'0 0.1
2015-Mar-24 02:20N 53°23' W 002°60'1 0.5
2015-Mar-24 01:21N 53°23' W 003°00'6 7.8
2015-Mar-24 00:33N 53°29' W 003°05'7 6.6
2015-Mar-23 23:33N 53°31' W 003°15'8 7.9
2015-Mar-23 22:33N 53°28' W 003°03'5 5.4
2015-Mar-23 21:33N 53°23' W 002°60'0 0.0
2015-Mar-23 20:27N 53°23' W 002°60'0 0.0
2015-Mar-23 19:33N 53°23' W 002°60'0 0.0
2015-Mar-23 18:26N 53°23' W 002°60'0 0.0
2015-Mar-23 17:08N 53°23' W 002°60'0 0.0
2015-Mar-23 15:32N 53°23' W 002°60'0 0.0
2015-Mar-23 14:32N 53°23' W 002°60'0 0.2
2015-Mar-23 13:29N 53°23' W 003°00'3 3.0
2015-Mar-23 12:33N 53°26' W 003°01'8 8.0
2015-Mar-23 11:33N 53°32' W 003°10'4 3.6
2015-Mar-23 10:33N 53°31' W 003°16'8 7.9
2015-Mar-23 09:33N 53°28' W 003°04'6 5.7
2015-Mar-23 08:31N 53°23' W 002°60'0 0.1
2015-Mar-23 07:30N 53°23' W 002°60'0 0.0
2015-Mar-23 06:30N 53°23' W 002°60'0 0.0
2015-Mar-23 05:30N 53°23' W 002°60'0 0.0
2015-Mar-23 04:30N 53°23' W 002°60'0 0.0
2015-Mar-23 03:18N 53°23' W 002°60'0 0.0
2015-Mar-23 02:30N 53°23' W 002°60'0 0.0
2015-Mar-23 01:24N 53°23' W 002°60'0 0.0
2015-Mar-23 00:24N 53°23' W 002°60'0 0.0
2015-Mar-22 23:17N 53°23' W 002°60'0 0.0
2015-Mar-22 22:23N 53°23' W 002°60'0 0.0
2015-Mar-22 21:29N 53°23' W 002°60'0 0.0
2015-Mar-22 20:29N 53°23' W 002°60'0 0.0
2015-Mar-22 19:29N 53°23' W 002°60'0 0.0
2015-Mar-22 18:29N 53°23' W 002°60'0 0.0
2015-Mar-22 17:29N 53°23' W 002°60'0 0.0
2015-Mar-22 16:23N 53°23' W 002°60'0 0.0
2015-Mar-22 15:23N 53°23' W 002°60'0 0.0
2015-Mar-22 14:29N 53°23' W 002°60'0 0.0
2015-Mar-22 13:29N 53°23' W 002°60'  

Dump ship's entire track history